createdAt,value
2023-05-13T00:01:04.229Z,1019.29
2023-05-13T00:02:01.697Z,1019.33
2023-05-13T00:03:01.750Z,1019.34
2023-05-13T00:04:01.728Z,1019.32
2023-05-13T00:05:01.715Z,1019.37
2023-05-13T00:06:05.806Z,1019.37
2023-05-13T00:07:04.021Z,1019.34
2023-05-13T00:08:01.140Z,1019.36
2023-05-13T00:09:01.086Z,1019.35
2023-05-13T00:10:01.222Z,1019.3
2023-05-13T00:11:09.815Z,1019.32
2023-05-13T00:12:01.091Z,1019.31
2023-05-13T00:13:01.105Z,1019.27
2023-05-13T00:14:01.197Z,1019.24
2023-05-13T00:15:01.709Z,1019.25
2023-05-13T00:16:11.574Z,1019.26
2023-05-13T00:17:00.800Z,1019.29
2023-05-13T00:18:01.252Z,1019.32
2023-05-13T00:19:01.993Z,1019.27
2023-05-13T00:20:02.580Z,1019.31
2023-05-13T00:21:15.555Z,1019.3
2023-05-13T00:22:01.458Z,1019.34
2023-05-13T00:23:01.070Z,1019.32
2023-05-13T00:24:01.570Z,1019.32
2023-05-13T00:25:01.020Z,1019.35
2023-05-13T00:26:00.683Z,1019.33
2023-05-13T00:27:00.374Z,1019.36
2023-05-13T00:27:59.967Z,1019.32
2023-05-13T00:29:01.105Z,1019.39
2023-05-13T00:30:01.739Z,1019.37
2023-05-13T00:31:01.118Z,1019.36
2023-05-13T00:32:01.410Z,1019.38
2023-05-13T00:33:01.067Z,1019.34
2023-05-13T00:34:00.732Z,1019.4
2023-05-13T00:35:01.034Z,1019.37
2023-05-13T00:36:01.058Z,1019.4
2023-05-13T00:37:01.068Z,1019.36
2023-05-13T00:38:01.059Z,1019.42
2023-05-13T00:39:00.646Z,1019.41
2023-05-13T00:40:00.664Z,1019.4
2023-05-13T00:41:00.270Z,1019.38
2023-05-13T00:41:59.838Z,1019.34
2023-05-13T00:43:01.466Z,1019.39
2023-05-13T00:44:01.028Z,1019.38
2023-05-13T00:45:01.117Z,1019.33
2023-05-13T00:46:01.186Z,1019.39
2023-05-13T00:47:01.117Z,1019.44
2023-05-13T00:48:01.561Z,1019.46
2023-05-13T00:49:01.138Z,1019.46
2023-05-13T00:50:01.220Z,1019.43
2023-05-13T00:51:01.053Z,1019.44
2023-05-13T00:52:01.055Z,1019.42
2023-05-13T00:53:01.058Z,1019.42
2023-05-13T00:54:01.864Z,1019.43
2023-05-13T00:55:01.083Z,1019.43
2023-05-13T00:56:01.091Z,1019.46
2023-05-13T00:57:01.603Z,1019.45
2023-05-13T00:58:01.276Z,1019.42
2023-05-13T00:59:02.262Z,1019.45
2023-05-13T01:00:01.942Z,1019.49
2023-05-13T01:01:02.600Z,1019.5
2023-05-13T01:02:01.146Z,1019.5
2023-05-13T01:03:01.217Z,1019.52
2023-05-13T01:04:01.267Z,1019.48
2023-05-13T01:05:01.373Z,1019.52
2023-05-13T01:06:01.420Z,1019.53
2023-05-13T01:07:01.040Z,1019.57
2023-05-13T01:08:01.350Z,1019.49
2023-05-13T01:09:01.073Z,1019.53
2023-05-13T01:10:01.067Z,1019.51
2023-05-13T01:11:02.083Z,1019.48
2023-05-13T01:12:02.558Z,1019.52
2023-05-13T01:13:01.313Z,1019.5
2023-05-13T01:14:01.504Z,1019.52
2023-05-13T01:15:04.112Z,1019.55
2023-05-13T01:16:01.343Z,1019.55
2023-05-13T01:17:01.605Z,1019.6
2023-05-13T01:18:00.779Z,1019.61
2023-05-13T01:19:00.550Z,1019.61
2023-05-13T01:20:00.503Z,1019.64
2023-05-13T01:21:00.316Z,1019.61
2023-05-13T01:22:00.407Z,1019.7
2023-05-13T01:23:00.246Z,1019.68
2023-05-13T01:23:59.868Z,1019.69
2023-05-13T01:24:59.530Z,1019.65
2023-05-13T01:26:01.233Z,1019.65
2023-05-13T01:27:01.066Z,1019.66
2023-05-13T01:28:01.245Z,1019.67
2023-05-13T01:29:01.087Z,1019.67
2023-05-13T01:30:01.874Z,1019.74
2023-05-13T01:31:01.217Z,1019.72
2023-05-13T01:32:02.049Z,1019.72
2023-05-13T01:33:02.575Z,1019.71
2023-05-13T01:34:01.028Z,1019.73
2023-05-13T01:35:01.110Z,1019.72
2023-05-13T01:36:01.114Z,1019.75
2023-05-13T01:37:01.410Z,1019.73
2023-05-13T01:38:01.035Z,1019.79
2023-05-13T01:39:00.560Z,1019.79
2023-05-13T01:40:00.214Z,1019.77
2023-05-13T01:40:59.812Z,1019.76
2023-05-13T01:42:01.753Z,1019.74
2023-05-13T01:43:01.349Z,1019.8
2023-05-13T01:44:00.950Z,1019.79
2023-05-13T01:45:01.067Z,1019.77
2023-05-13T01:46:01.256Z,1019.82
2023-05-13T01:47:02.192Z,1019.81
2023-05-13T01:48:02.044Z,1019.8
2023-05-13T01:49:01.105Z,1019.83
2023-05-13T01:50:01.119Z,1019.84
2023-05-13T01:51:02.134Z,1019.87
2023-05-13T01:52:05.256Z,1019.87
2023-05-13T01:53:01.152Z,1019.86
2023-05-13T01:54:01.171Z,1019.92
2023-05-13T01:55:01.414Z,1019.91
2023-05-13T01:56:01.916Z,1019.89
2023-05-13T01:57:07.754Z,1019.9
2023-05-13T01:58:01.733Z,1019.9
2023-05-13T01:59:01.761Z,1019.95
2023-05-13T02:00:01.995Z,1019.97
2023-05-13T02:01:01.756Z,1019.94
2023-05-13T02:02:10.557Z,1019.95
2023-05-13T02:03:01.538Z,1019.94
2023-05-13T02:04:01.545Z,1019.95
2023-05-13T02:05:01.405Z,1019.96
2023-05-13T02:06:01.021Z,1020
2023-05-13T02:07:13.412Z,1019.96
2023-05-13T02:08:01.017Z,1019.94
2023-05-13T02:09:01.042Z,1019.96
2023-05-13T02:10:01.076Z,1019.91
2023-05-13T02:11:01.063Z,1019.94
2023-05-13T02:12:16.369Z,1019.88
2023-05-13T02:13:01.056Z,1019.93
2023-05-13T02:14:02.354Z,1019.92
2023-05-13T02:15:01.773Z,1019.94
2023-05-13T02:16:01.502Z,1019.97
2023-05-13T02:17:01.108Z,1019.99
2023-05-13T02:18:01.238Z,1019.94
2023-05-13T02:19:01.135Z,1019.98
2023-05-13T02:20:01.132Z,1019.99
2023-05-13T02:21:01.045Z,1019.99
2023-05-13T02:22:01.494Z,1019.99
2023-05-13T02:23:01.117Z,1019.93
2023-05-13T02:24:01.027Z,1019.95
2023-05-13T02:25:01.024Z,1019.98
2023-05-13T02:26:01.033Z,1019.91
2023-05-13T02:27:01.036Z,1019.93
2023-05-13T02:28:01.340Z,1019.98
2023-05-13T02:29:01.428Z,1020
2023-05-13T02:30:02.244Z,1019.96
2023-05-13T02:31:02.880Z,1020.01
2023-05-13T02:32:01.134Z,1019.98
2023-05-13T02:33:01.180Z,1019.97
2023-05-13T02:34:01.897Z,1019.94
2023-05-13T02:35:01.643Z,1019.95
2023-05-13T02:36:01.123Z,1019.97
2023-05-13T02:37:01.873Z,1019.98
2023-05-13T02:38:02.169Z,1019.92
2023-05-13T02:39:01.493Z,1019.95
2023-05-13T02:40:01.125Z,1019.91
2023-05-13T02:41:01.028Z,1019.94
2023-05-13T02:42:01.037Z,1019.98
2023-05-13T02:43:01.024Z,1019.94
2023-05-13T02:44:01.436Z,1019.89
2023-05-13T02:45:01.050Z,1019.93
2023-05-13T02:46:01.029Z,1019.95
2023-05-13T02:47:01.088Z,1019.94
2023-05-13T02:48:01.117Z,1019.94
2023-05-13T02:49:01.078Z,1019.92
2023-05-13T02:50:01.121Z,1019.95
2023-05-13T02:51:01.093Z,1020
2023-05-13T02:52:01.116Z,1019.98
2023-05-13T02:53:01.486Z,1019.99
2023-05-13T02:54:01.402Z,1019.97
2023-05-13T02:55:01.043Z,1019.97
2023-05-13T02:56:00.730Z,1019.97
2023-05-13T02:57:00.426Z,1020
2023-05-13T02:58:00.158Z,1020
2023-05-13T02:58:59.710Z,1020.01
2023-05-13T03:00:01.482Z,1020
2023-05-13T03:01:01.441Z,1019.99
2023-05-13T03:02:01.078Z,1020.02
2023-05-13T03:03:01.322Z,1019.98
2023-05-13T03:04:01.076Z,1019.99
2023-05-13T03:05:01.052Z,1019.97
2023-05-13T03:06:01.102Z,1020.02
2023-05-13T03:07:00.782Z,1020
2023-05-13T03:08:01.142Z,1020.06
2023-05-13T03:09:01.498Z,1020.07
2023-05-13T03:10:01.164Z,1020.08
2023-05-13T03:11:01.047Z,1020.08
2023-05-13T03:12:01.436Z,1020.08
2023-05-13T03:13:01.076Z,1020.13
2023-05-13T03:14:01.045Z,1020.08
2023-05-13T03:15:01.070Z,1020.11
2023-05-13T03:16:00.781Z,1020.15
2023-05-13T03:17:01.050Z,1020.1
2023-05-13T03:18:01.120Z,1020.08
2023-05-13T03:19:00.710Z,1020.13
2023-05-13T03:20:00.469Z,1020.11
2023-05-13T03:21:00.166Z,1020.15
2023-05-13T03:21:59.755Z,1020.17
2023-05-13T03:23:01.679Z,1020.13
2023-05-13T03:24:01.262Z,1020.11
2023-05-13T03:25:01.271Z,1020.14
2023-05-13T03:26:01.129Z,1020.15
2023-05-13T03:27:01.117Z,1020.12
2023-05-13T03:28:01.047Z,1020.11
2023-05-13T03:29:01.046Z,1020.14
2023-05-13T03:30:01.848Z,1020.15
2023-05-13T03:31:00.771Z,1020.12
2023-05-13T03:32:00.551Z,1020.09
2023-05-13T03:33:04.259Z,1020.13
2023-05-13T03:34:01.918Z,1020.1
2023-05-13T03:35:01.905Z,1020.14
2023-05-13T03:36:00.666Z,1020.15
2023-05-13T03:37:00.309Z,1020.14
2023-05-13T03:38:05.058Z,1020.15
2023-05-13T03:39:02.042Z,1020.16
2023-05-13T03:40:01.288Z,1020.19
2023-05-13T03:41:01.506Z,1020.17
2023-05-13T03:42:04.650Z,1020.22
2023-05-13T03:43:07.689Z,1020.18
2023-05-13T03:44:02.728Z,1020.23
2023-05-13T03:45:01.340Z,1020.22
2023-05-13T03:46:01.063Z,1020.25
2023-05-13T03:47:01.105Z,1020.23
2023-05-13T03:48:11.642Z,1020.19
2023-05-13T03:49:01.241Z,1020.2
2023-05-13T03:50:04.033Z,1020.17
2023-05-13T03:51:01.076Z,1020.19
2023-05-13T03:52:01.100Z,1020.18
2023-05-13T03:53:15.570Z,1020.17
2023-05-13T03:54:01.215Z,1020.2
2023-05-13T03:55:01.375Z,1020.25
2023-05-13T03:56:01.238Z,1020.2
2023-05-13T03:57:01.243Z,1020.24
2023-05-13T03:58:00.509Z,1020.24
2023-05-13T03:59:00.118Z,1020.26
2023-05-13T03:59:59.787Z,1020.19
2023-05-13T04:01:05.100Z,1020.26
2023-05-13T04:02:01.789Z,1020.25
2023-05-13T04:03:01.449Z,1020.25
2023-05-13T04:04:01.455Z,1020.27
2023-05-13T04:05:01.199Z,1020.27
2023-05-13T04:06:01.205Z,1020.23
2023-05-13T04:07:01.103Z,1020.28
2023-05-13T04:08:01.079Z,1020.29
2023-05-13T04:09:01.105Z,1020.26
2023-05-13T04:10:01.449Z,1020.3
2023-05-13T04:11:01.105Z,1020.25
2023-05-13T04:12:01.170Z,1020.3
2023-05-13T04:13:01.117Z,1020.34
2023-05-13T04:14:01.530Z,1020.36
2023-05-13T04:15:00.737Z,1020.36
2023-05-13T04:16:00.358Z,1020.35
2023-05-13T04:17:00.123Z,1020.39
2023-05-13T04:17:59.739Z,1020.36
2023-05-13T04:19:01.794Z,1020.34
2023-05-13T04:20:01.404Z,1020.35
2023-05-13T04:21:02.077Z,1020.38
2023-05-13T04:22:01.133Z,1020.38
2023-05-13T04:23:01.084Z,1020.36
2023-05-13T04:24:01.073Z,1020.4
2023-05-13T04:25:01.102Z,1020.38
2023-05-13T04:26:01.114Z,1020.42
2023-05-13T04:27:01.703Z,1020.42
2023-05-13T04:28:01.176Z,1020.42
2023-05-13T04:29:01.038Z,1020.43
2023-05-13T04:30:01.132Z,1020.37
2023-05-13T04:31:01.034Z,1020.43
2023-05-13T04:32:01.392Z,1020.43
2023-05-13T04:33:01.241Z,1020.43
2023-05-13T04:34:01.445Z,1020.46
2023-05-13T04:35:02.082Z,1020.39
2023-05-13T04:36:01.782Z,1020.43
2023-05-13T04:37:01.056Z,1020.41
2023-05-13T04:38:01.082Z,1020.42
2023-05-13T04:39:01.083Z,1020.35
2023-05-13T04:40:01.099Z,1020.41
2023-05-13T04:41:01.490Z,1020.38
2023-05-13T04:42:01.487Z,1020.37
2023-05-13T04:43:01.125Z,1020.38
2023-05-13T04:44:01.258Z,1020.36
2023-05-13T04:45:01.114Z,1020.39
2023-05-13T04:46:01.160Z,1020.43
2023-05-13T04:47:01.019Z,1020.38
2023-05-13T04:48:01.117Z,1020.45
2023-05-13T04:49:01.398Z,1020.38
2023-05-13T04:50:01.070Z,1020.4
2023-05-13T04:51:01.267Z,1020.39
2023-05-13T04:52:01.865Z,1020.36
2023-05-13T04:53:00.553Z,1020.35
2023-05-13T04:54:00.265Z,1020.38
2023-05-13T04:55:00.273Z,1020.34
2023-05-13T04:55:59.976Z,1020.34
2023-05-13T04:56:59.658Z,1020.36
2023-05-13T04:58:01.402Z,1020.33
2023-05-13T04:59:01.127Z,1020.34
2023-05-13T05:00:01.190Z,1020.34
2023-05-13T05:01:01.167Z,1020.34
2023-05-13T05:02:01.183Z,1020.32
2023-05-13T05:03:01.174Z,1020.34
2023-05-13T05:04:01.299Z,1020.31
2023-05-13T05:05:01.167Z,1020.36
2023-05-13T05:06:00.446Z,1020.35
2023-05-13T05:07:00.021Z,1020.36
2023-05-13T05:07:59.548Z,1020.35
2023-05-13T05:09:01.755Z,1020.37
2023-05-13T05:10:02.223Z,1020.43
2023-05-13T05:11:02.613Z,1020.42
2023-05-13T05:12:01.119Z,1020.42
2023-05-13T05:13:01.115Z,1020.44
2023-05-13T05:14:01.460Z,1020.44
2023-05-13T05:15:01.812Z,1020.44
2023-05-13T05:16:02.977Z,1020.5
2023-05-13T05:17:01.096Z,1020.47
2023-05-13T05:18:01.145Z,1020.48
2023-05-13T05:19:04.676Z,1020.51
2023-05-13T05:20:01.051Z,1020.54
2023-05-13T05:21:02.590Z,1020.52
2023-05-13T05:22:02.152Z,1020.53
2023-05-13T05:23:01.754Z,1020.58
2023-05-13T05:24:09.080Z,1020.56
2023-05-13T05:25:01.469Z,1020.63
2023-05-13T05:26:11.209Z,1020.64
2023-05-13T05:27:01.092Z,1020.63
2023-05-13T05:28:01.233Z,1020.64
2023-05-13T05:29:11.742Z,1020.7
2023-05-13T05:30:01.139Z,1020.67
2023-05-13T05:31:00.927Z,1020.66
2023-05-13T05:32:01.339Z,1020.63
2023-05-13T05:33:02.450Z,1020.7
2023-05-13T05:34:14.738Z,1020.67
2023-05-13T05:35:01.109Z,1020.66
2023-05-13T05:36:01.664Z,1020.68
2023-05-13T05:37:02.378Z,1020.7
2023-05-13T05:38:04.133Z,1020.69
2023-05-13T05:39:16.706Z,1020.73
2023-05-13T05:40:01.029Z,1020.73
2023-05-13T05:41:01.064Z,1020.74
2023-05-13T05:42:01.024Z,1020.72
2023-05-13T05:43:01.090Z,1020.74
2023-05-13T05:44:01.520Z,1020.74
2023-05-13T05:45:00.778Z,1020.72
2023-05-13T05:46:00.365Z,1020.73
2023-05-13T05:46:59.988Z,1020.77
2023-05-13T05:47:59.770Z,1020.74
2023-05-13T05:49:01.378Z,1020.78
2023-05-13T05:50:01.044Z,1020.77
2023-05-13T05:51:00.706Z,1020.79
2023-05-13T05:52:00.315Z,1020.79
2023-05-13T05:52:59.914Z,1020.79
2023-05-13T05:53:59.676Z,1020.76
2023-05-13T05:55:02.075Z,1020.81
2023-05-13T05:56:01.345Z,1020.82
2023-05-13T05:57:01.513Z,1020.79
2023-05-13T05:58:01.141Z,1020.79
2023-05-13T05:59:01.518Z,1020.8
2023-05-13T06:00:01.869Z,1020.74
2023-05-13T06:01:01.234Z,1020.74
2023-05-13T06:02:01.132Z,1020.76
2023-05-13T06:03:01.301Z,1020.75
2023-05-13T06:04:01.271Z,1020.76
2023-05-13T06:05:01.921Z,1020.76
2023-05-13T06:06:01.027Z,1020.7
2023-05-13T06:07:01.151Z,1020.75
2023-05-13T06:08:01.050Z,1020.75
2023-05-13T06:09:01.041Z,1020.72
2023-05-13T06:10:01.070Z,1020.72
2023-05-13T06:11:01.048Z,1020.72
2023-05-13T06:12:01.099Z,1020.7
2023-05-13T06:13:01.071Z,1020.72
2023-05-13T06:14:00.886Z,1020.7
2023-05-13T06:15:00.688Z,1020.69
2023-05-13T06:16:00.420Z,1020.69
2023-05-13T06:17:00.058Z,1020.72
2023-05-13T06:17:59.812Z,1020.69
2023-05-13T06:18:59.525Z,1020.67
2023-05-13T06:20:01.164Z,1020.62
2023-05-13T06:21:01.123Z,1020.62
2023-05-13T06:22:03.287Z,1020.63
2023-05-13T06:23:01.032Z,1020.65
2023-05-13T06:24:01.040Z,1020.67
2023-05-13T06:25:01.057Z,1020.62
2023-05-13T06:26:01.064Z,1020.64
2023-05-13T06:27:01.079Z,1020.66
2023-05-13T06:28:03.063Z,1020.67
2023-05-13T06:29:01.024Z,1020.68
2023-05-13T06:30:01.012Z,1020.74
2023-05-13T06:31:01.328Z,1020.74
2023-05-13T06:32:02.530Z,1020.72
2023-05-13T06:33:02.686Z,1020.71
2023-05-13T06:34:02.128Z,1020.71
2023-05-13T06:35:00.515Z,1020.71
2023-05-13T06:36:00.305Z,1020.71
2023-05-13T06:36:59.895Z,1020.7
2023-05-13T06:37:59.440Z,1020.68
2023-05-13T06:39:01.839Z,1020.68
2023-05-13T06:40:01.081Z,1020.71
2023-05-13T06:41:01.055Z,1020.73
2023-05-13T06:42:01.048Z,1020.73
2023-05-13T06:43:01.066Z,1020.7
2023-05-13T06:44:01.069Z,1020.71
2023-05-13T06:45:01.085Z,1020.71
2023-05-13T06:46:01.098Z,1020.72
2023-05-13T06:47:01.110Z,1020.72
2023-05-13T06:48:01.568Z,1020.76
2023-05-13T06:49:01.988Z,1020.74
2023-05-13T06:50:01.146Z,1020.69
2023-05-13T06:51:01.762Z,1020.76
2023-05-13T06:52:01.129Z,1020.78
2023-05-13T06:53:01.135Z,1020.76
2023-05-13T06:54:01.037Z,1020.79
2023-05-13T06:55:01.067Z,1020.81
2023-05-13T06:56:03.691Z,1020.85
2023-05-13T06:57:01.167Z,1020.82
2023-05-13T06:58:01.201Z,1020.83
2023-05-13T06:59:02.782Z,1020.81
2023-05-13T07:00:01.077Z,1020.79
2023-05-13T07:01:01.035Z,1020.82
2023-05-13T07:02:01.010Z,1020.83
2023-05-13T07:03:01.036Z,1020.74
2023-05-13T07:04:01.141Z,1020.72
2023-05-13T07:05:01.096Z,1020.77
2023-05-13T07:06:01.407Z,1020.77
2023-05-13T07:07:02.028Z,1020.74
2023-05-13T07:08:01.136Z,1020.76
2023-05-13T07:09:01.264Z,1020.75
2023-05-13T07:10:03.688Z,1020.79
2023-05-13T07:11:01.430Z,1020.72
2023-05-13T07:12:01.340Z,1020.72
2023-05-13T07:13:02.488Z,1020.75
2023-05-13T07:14:01.048Z,1020.75
2023-05-13T07:15:05.732Z,1020.78
2023-05-13T07:16:01.066Z,1020.76
2023-05-13T07:17:01.126Z,1020.74
2023-05-13T07:18:01.379Z,1020.75
2023-05-13T07:19:01.129Z,1020.76
2023-05-13T07:20:09.434Z,1020.73
2023-05-13T07:21:01.108Z,1020.69
2023-05-13T07:22:01.204Z,1020.72
2023-05-13T07:23:01.390Z,1020.7
2023-05-13T07:24:01.370Z,1020.71
2023-05-13T07:25:11.934Z,1020.71
2023-05-13T07:26:01.131Z,1020.71
2023-05-13T07:27:00.857Z,1020.73
2023-05-13T07:28:01.028Z,1020.67
2023-05-13T07:29:00.424Z,1020.74
2023-05-13T07:30:14.284Z,1020.7
2023-05-13T07:31:01.092Z,1020.66
2023-05-13T07:32:01.097Z,1020.69
2023-05-13T07:33:01.375Z,1020.68
2023-05-13T07:34:01.292Z,1020.69
2023-05-13T07:35:15.948Z,1020.7
2023-05-13T07:36:02.933Z,1020.7
2023-05-13T07:37:01.121Z,1020.68
2023-05-13T07:38:01.112Z,1020.69
2023-05-13T07:39:02.074Z,1020.67
2023-05-13T07:40:01.116Z,1020.63
2023-05-13T07:41:01.023Z,1020.64
2023-05-13T07:42:01.412Z,1020.65
2023-05-13T07:43:01.038Z,1020.6
2023-05-13T07:44:01.047Z,1020.65
2023-05-13T07:45:01.350Z,1020.65
2023-05-13T07:46:01.078Z,1020.6
2023-05-13T07:47:01.138Z,1020.6
2023-05-13T07:48:01.105Z,1020.6
2023-05-13T07:49:01.124Z,1020.55
2023-05-13T07:50:01.101Z,1020.56
2023-05-13T07:51:01.478Z,1020.57
2023-05-13T07:52:02.117Z,1020.56
2023-05-13T07:53:01.229Z,1020.56
2023-05-13T07:54:01.135Z,1020.55
2023-05-13T07:55:00.814Z,1020.59
2023-05-13T07:56:00.407Z,1020.56
2023-05-13T07:57:00.109Z,1020.51
2023-05-13T07:57:59.696Z,1020.53
2023-05-13T07:59:01.741Z,1020.51
2023-05-13T08:00:01.715Z,1020.53
2023-05-13T08:01:02.034Z,1020.54
2023-05-13T08:02:02.265Z,1020.56
2023-05-13T08:03:01.902Z,1020.53
2023-05-13T08:04:02.272Z,1020.51
2023-05-13T08:05:01.136Z,1020.54
2023-05-13T08:06:01.081Z,1020.46
2023-05-13T08:07:01.019Z,1020.5
2023-05-13T08:08:01.194Z,1020.51
2023-05-13T08:09:00.749Z,1020.47
2023-05-13T08:10:00.697Z,1020.48
2023-05-13T08:11:00.440Z,1020.54
2023-05-13T08:12:00.042Z,1020.51
2023-05-13T08:12:59.688Z,1020.47
2023-05-13T08:14:01.716Z,1020.54
2023-05-13T08:15:02.121Z,1020.48
2023-05-13T08:16:02.617Z,1020.53
2023-05-13T08:17:01.082Z,1020.49
2023-05-13T08:18:01.491Z,1020.53
2023-05-13T08:19:00.915Z,1020.52
2023-05-13T08:20:00.565Z,1020.52
2023-05-13T08:21:00.253Z,1020.5
2023-05-13T08:21:59.851Z,1020.46
2023-05-13T08:22:59.606Z,1020.47
2023-05-13T08:24:01.186Z,1020.44
2023-05-13T08:25:01.869Z,1020.44
2023-05-13T08:26:01.495Z,1020.45
2023-05-13T08:27:01.122Z,1020.5
2023-05-13T08:28:01.129Z,1020.46
2023-05-13T08:29:01.062Z,1020.45
2023-05-13T08:30:01.064Z,1020.47
2023-05-13T08:31:01.044Z,1020.49
2023-05-13T08:32:01.061Z,1020.45
2023-05-13T08:33:01.094Z,1020.47
2023-05-13T08:34:01.075Z,1020.5
2023-05-13T08:35:00.714Z,1020.48
2023-05-13T08:36:00.448Z,1020.44
2023-05-13T08:37:00.073Z,1020.41
2023-05-13T08:37:59.661Z,1020.4
2023-05-13T08:39:01.677Z,1020.37
2023-05-13T08:40:02.428Z,1020.38
2023-05-13T08:41:01.405Z,1020.4
2023-05-13T08:42:01.118Z,1020.36
2023-05-13T08:43:01.437Z,1020.36
2023-05-13T08:44:01.967Z,1020.37
2023-05-13T08:45:01.057Z,1020.36
2023-05-13T08:46:01.702Z,1020.39
2023-05-13T08:47:01.185Z,1020.36
2023-05-13T08:48:01.167Z,1020.36
2023-05-13T08:49:00.851Z,1020.28
2023-05-13T08:50:00.555Z,1020.28
2023-05-13T08:51:00.289Z,1020.26
2023-05-13T08:51:59.890Z,1020.32
2023-05-13T08:52:59.572Z,1020.32
2023-05-13T08:54:01.187Z,1020.28
2023-05-13T08:55:00.904Z,1020.36
2023-05-13T08:56:01.533Z,1020.31
2023-05-13T08:57:01.080Z,1020.3
2023-05-13T08:58:01.124Z,1020.25
2023-05-13T08:59:01.142Z,1020.26
2023-05-13T09:00:01.039Z,1020.26
2023-05-13T09:01:04.093Z,1020.26
2023-05-13T09:02:01.051Z,1020.3
2023-05-13T09:03:01.076Z,1020.27
2023-05-13T09:04:01.097Z,1020.34
2023-05-13T09:05:01.515Z,1020.31
2023-05-13T09:06:07.622Z,1020.27
2023-05-13T09:07:01.069Z,1020.29
2023-05-13T09:08:01.108Z,1020.28
2023-05-13T09:09:01.092Z,1020.27
2023-05-13T09:10:01.107Z,1020.27
2023-05-13T09:11:09.960Z,1020.25
2023-05-13T09:12:01.152Z,1020.3
2023-05-13T09:13:01.489Z,1020.26
2023-05-13T09:14:01.344Z,1020.21
2023-05-13T09:15:01.037Z,1020.2
2023-05-13T09:16:13.297Z,1020.19
2023-05-13T09:17:01.937Z,1020.25
2023-05-13T09:18:01.109Z,1020.25
2023-05-13T09:19:01.377Z,1020.23
2023-05-13T09:20:01.149Z,1020.23
2023-05-13T09:21:15.587Z,1020.2
2023-05-13T09:22:01.568Z,1020.23
2023-05-13T09:23:01.289Z,1020.21
2023-05-13T09:24:01.085Z,1020.21
2023-05-13T09:25:01.030Z,1020.23
2023-05-13T09:26:01.098Z,1020.24
2023-05-13T09:27:01.437Z,1020.23
2023-05-13T09:28:01.132Z,1020.27
2023-05-13T09:29:01.105Z,1020.15
2023-05-13T09:30:01.139Z,1020.14
2023-05-13T09:31:01.178Z,1020.17
2023-05-13T09:32:01.423Z,1020.15
2023-05-13T09:33:01.073Z,1020.14
2023-05-13T09:34:01.326Z,1020.14
2023-05-13T09:35:01.064Z,1020.1
2023-05-13T09:36:01.263Z,1020.11
2023-05-13T09:37:01.254Z,1020.09
2023-05-13T09:38:01.072Z,1020.1
2023-05-13T09:39:01.081Z,1020.1
2023-05-13T09:40:01.135Z,1020.09
2023-05-13T09:41:01.087Z,1020.15
2023-05-13T09:43:01.400Z,1020.11
2023-05-13T09:44:01.148Z,1020.11
2023-05-13T09:45:01.104Z,1020.12
2023-05-13T09:46:01.129Z,1020.11
2023-05-13T09:47:01.135Z,1020.14
2023-05-13T09:48:01.054Z,1020.13
2023-05-13T09:49:01.045Z,1020.14
2023-05-13T09:50:01.052Z,1020.16
2023-05-13T09:51:01.083Z,1020.1
2023-05-13T09:52:01.204Z,1020.1
2023-05-13T09:53:01.068Z,1020.15
2023-05-13T09:54:01.077Z,1020.19
2023-05-13T09:55:01.041Z,1020.09
2023-05-13T09:56:01.035Z,1020.05
2023-05-13T09:57:01.121Z,1020.15
2023-05-13T09:58:01.106Z,1020.09
2023-05-13T09:59:00.898Z,1020.22
2023-05-13T10:00:01.126Z,1020.09
2023-05-13T10:01:01.214Z,1020.05
2023-05-13T10:02:01.499Z,1020.01
2023-05-13T10:03:01.583Z,1020.04
2023-05-13T10:04:02.432Z,1019.99
2023-05-13T10:05:01.246Z,1019.98
2023-05-13T10:06:03.547Z,1019.95
2023-05-13T10:07:01.219Z,1019.98
2023-05-13T10:08:01.954Z,1019.92
2023-05-13T10:09:01.494Z,1019.92
2023-05-13T10:10:01.112Z,1019.92
2023-05-13T10:11:01.082Z,1019.88
2023-05-13T10:12:01.091Z,1019.84
2023-05-13T10:13:01.826Z,1019.93
2023-05-13T10:14:01.845Z,1019.95
2023-05-13T10:15:01.032Z,1020.06
2023-05-13T10:16:01.022Z,1020.03
2023-05-13T10:17:01.615Z,1020.01
2023-05-13T10:18:02.370Z,1019.99
2023-05-13T10:19:02.393Z,1019.97
2023-05-13T10:20:01.044Z,1020.01
2023-05-13T10:21:01.040Z,1020
2023-05-13T10:22:01.047Z,1019.99
2023-05-13T10:23:01.023Z,1019.96
2023-05-13T10:24:01.426Z,1019.98
2023-05-13T10:25:01.486Z,1019.96
2023-05-13T10:26:01.439Z,1019.98
2023-05-13T10:27:00.591Z,1019.96
2023-05-13T10:28:00.176Z,1019.99
2023-05-13T10:28:59.845Z,1019.96
2023-05-13T10:30:03.512Z,1019.93
2023-05-13T10:31:01.500Z,1019.95
2023-05-13T10:32:01.179Z,1019.96
2023-05-13T10:33:01.527Z,1020.01
2023-05-13T10:34:01.395Z,1019.97
2023-05-13T10:35:01.054Z,1019.95
2023-05-13T10:36:03.839Z,1019.9
2023-05-13T10:37:02.085Z,1019.95
2023-05-13T10:38:02.069Z,1019.94
2023-05-13T10:39:01.903Z,1019.88
2023-05-13T10:40:00.753Z,1019.86
2023-05-13T10:41:00.528Z,1019.84
2023-05-13T10:42:00.251Z,1019.91
2023-05-13T10:42:59.950Z,1019.9
2023-05-13T10:43:59.551Z,1019.9
2023-05-13T10:45:01.093Z,1019.87
2023-05-13T10:46:02.000Z,1019.86
2023-05-13T10:47:03.510Z,1019.88
2023-05-13T10:48:01.584Z,1019.86
2023-05-13T10:49:01.142Z,1019.87
2023-05-13T10:50:01.843Z,1019.85
2023-05-13T10:51:02.390Z,1019.87
2023-05-13T10:52:06.012Z,1019.78
2023-05-13T10:53:01.049Z,1019.8
2023-05-13T10:54:01.013Z,1019.77
2023-05-13T10:55:01.070Z,1019.83
2023-05-13T10:56:01.073Z,1019.84
2023-05-13T10:57:09.319Z,1019.81
2023-05-13T10:58:01.166Z,1019.84
2023-05-13T10:59:00.891Z,1019.84
2023-05-13T11:00:01.089Z,1019.85
2023-05-13T11:01:01.094Z,1019.77
2023-05-13T11:02:11.113Z,1019.78
2023-05-13T11:03:01.535Z,1019.77
2023-05-13T11:04:01.310Z,1019.78
2023-05-13T11:05:01.181Z,1019.75
2023-05-13T11:06:01.046Z,1019.77
2023-05-13T11:07:13.961Z,1019.83
2023-05-13T11:08:01.034Z,1019.83
2023-05-13T11:09:01.039Z,1019.8
2023-05-13T11:10:01.046Z,1019.81
2023-05-13T11:11:01.354Z,1019.75
2023-05-13T11:12:16.889Z,1019.78
2023-05-13T11:13:01.263Z,1019.82
2023-05-13T11:14:01.027Z,1019.79
2023-05-13T11:15:01.100Z,1019.79
2023-05-13T11:16:01.112Z,1019.79
2023-05-13T11:17:01.089Z,1019.84
2023-05-13T11:18:01.012Z,1019.84
2023-05-13T11:19:00.840Z,1019.87
2023-05-13T11:20:01.153Z,1019.89
2023-05-13T11:21:02.390Z,1019.9
2023-05-13T11:22:01.507Z,1019.91
2023-05-13T11:23:01.249Z,1019.88
2023-05-13T11:24:01.835Z,1019.83
2023-05-13T11:25:01.989Z,1019.88
2023-05-13T11:26:01.045Z,1019.84
2023-05-13T11:27:01.163Z,1019.79
2023-05-13T11:28:01.084Z,1019.77
2023-05-13T11:29:01.171Z,1019.74
2023-05-13T11:30:01.486Z,1019.78
2023-05-13T11:31:01.216Z,1019.77
2023-05-13T11:32:01.317Z,1019.76
2023-05-13T11:33:02.069Z,1019.77
2023-05-13T11:34:01.111Z,1019.75
2023-05-13T11:35:01.036Z,1019.72
2023-05-13T11:36:01.162Z,1019.72
2023-05-13T11:37:01.018Z,1019.76
2023-05-13T11:38:01.346Z,1019.77
2023-05-13T11:39:01.519Z,1019.79
2023-05-13T11:40:01.046Z,1019.79
2023-05-13T11:41:01.047Z,1019.78
2023-05-13T11:42:03.804Z,1019.77
2023-05-13T11:43:01.133Z,1019.8
2023-05-13T11:44:01.107Z,1019.82
2023-05-13T11:45:01.073Z,1019.83
2023-05-13T11:46:01.161Z,1019.83
2023-05-13T11:47:01.092Z,1019.64
2023-05-13T11:48:01.121Z,1019.83
2023-05-13T11:49:01.107Z,1019.81
2023-05-13T11:50:01.369Z,1019.79
2023-05-13T11:51:01.360Z,1019.77
2023-05-13T11:52:01.415Z,1019.84
2023-05-13T11:53:02.580Z,1019.8
2023-05-13T11:54:01.054Z,1019.8
2023-05-13T11:55:01.024Z,1019.82
2023-05-13T11:56:01.038Z,1019.78
2023-05-13T11:57:01.061Z,1019.78
2023-05-13T11:58:01.078Z,1019.76
2023-05-13T11:59:00.752Z,1019.74
2023-05-13T12:00:00.343Z,1019.75
2023-05-13T12:01:00.039Z,1019.76
2023-05-13T12:01:59.666Z,1019.67
2023-05-13T12:03:02.007Z,1019.76
2023-05-13T12:04:01.299Z,1019.78
2023-05-13T12:05:01.260Z,1019.8
2023-05-13T12:06:01.126Z,1019.79
2023-05-13T12:07:01.122Z,1019.8
2023-05-13T12:08:01.549Z,1019.78
2023-05-13T12:09:01.968Z,1019.82
2023-05-13T12:10:01.379Z,1019.83